Time;durP1;ratioP1;P1;durP2;ratioP2;P2;SDS_P1;SDS_P2;PMS_P1;PMS_P2;Temp;Humidity;BMP_temperature;BMP_pressure;BME280_temperature;BME280_humidity;BME280_pressure;Samples;Min_cycle;Max_cycle;Signal;HPM_P1;HPM_P2
2023/08/14 00:02:09;;;;;;;9.02;6.03;;;;;;;15.81;100.00;101614.03;4966454;28;20081;-76
2023/08/14 00:04:36;;;;;;;6.45;5.50;;;;;;;15.80;100.00;101623.75;4968836;28;20046;-75
2023/08/14 00:07:04;;;;;;;8.27;5.45;;;;;;;15.78;100.00;101614.91;4965432;28;20046;-76
2023/08/14 00:09:31;;;;;;;6.25;5.60;;;;;;;15.78;100.00;101609.59;4908561;28;20042;-75
2023/08/14 00:12:01;;;;;;;6.45;5.88;;;;;;;15.76;100.00;101604.31;4965786;28;20416;-75
2023/08/14 00:14:29;;;;;;;7.22;5.68;;;;;;;15.75;100.00;101607.88;4969557;28;20042;-75
2023/08/14 00:16:56;;;;;;;6.57;5.50;;;;;;;15.72;100.00;101610.50;4983673;28;20496;-76
2023/08/14 00:19:23;;;;;;;6.13;5.63;;;;;;;15.71;100.00;101613.19;4968627;28;20058;-76
2023/08/14 00:21:51;;;;;;;6.25;5.72;;;;;;;15.67;100.00;101596.38;4966068;28;20058;-76
2023/08/14 00:24:18;;;;;;;7.95;6.00;;;;;;;15.65;100.00;101610.53;4952134;28;20818;-76
2023/08/14 00:26:45;;;;;;;7.32;5.85;;;;;;;15.65;100.00;101610.53;4980990;28;20050;-75
2023/08/14 00:29:13;;;;;;;5.93;5.40;;;;;;;15.63;100.00;101610.53;4969357;28;20050;-76
2023/08/14 00:31:40;;;;;;;6.53;5.10;;;;;;;15.62;100.00;101599.94;4972938;28;20039;-74
2023/08/14 00:34:07;;;;;;;7.35;6.22;;;;;;;15.60;100.00;101600.81;4970349;28;20054;-75
2023/08/14 00:36:35;;;;;;;8.20;5.75;;;;;;;15.59;100.00;101599.09;4972439;28;20046;-76
2023/08/14 00:39:03;;;;;;;7.03;5.28;;;;;;;15.57;100.00;101597.31;4970306;28;20076;-76
2023/08/14 00:41:30;;;;;;;8.52;5.82;;;;;;;15.54;100.00;101590.25;4951092;28;20049;-75
2023/08/14 00:43:58;;;;;;;8.02;5.57;;;;;;;15.54;100.00;101595.56;4941170;28;20050;-75
2023/08/14 00:46:25;;;;;;;7.28;6.00;;;;;;;15.52;100.00;101586.72;4973518;28;20050;-75
2023/08/14 00:48:53;;;;;;;5.93;5.32;;;;;;;15.51;100.00;101598.22;4987380;28;20050;-75
2023/08/14 00:51:22;;;;;;;6.00;5.50;;;;;;;15.51;100.00;101597.34;4988574;28;20050;-76
2023/08/14 00:53:50;;;;;;;7.32;6.30;;;;;;;15.49;100.00;101592.03;4971689;28;20070;-75
2023/08/14 00:56:19;;;;;;;6.63;5.97;;;;;;;15.49;100.00;101597.34;4950354;28;20042;-76
2023/08/14 00:58:50;;;;;;;6.97;6.30;;;;;;;15.48;100.00;101592.94;4988538;28;20069;-76
2023/08/14 01:01:20;;;;;;;6.95;6.22;;;;;;;15.47;100.00;101598.25;4972917;28;20058;-76
2023/08/14 01:03:47;;;;;;;7.40;6.57;;;;;;;15.46;100.00;101599.13;4971244;28;20443;-76
2023/08/14 01:06:15;;;;;;;6.60;5.72;;;;;;;15.44;100.00;101596.47;4971278;28;20062;-76
2023/08/14 01:08:43;;;;;;;10.00;5.80;;;;;;;15.43;100.00;101594.72;4972622;28;20042;-76
2023/08/14 01:11:23;;;;;;;9.00;6.00;;;;;;;15.43;100.00;101599.16;4929550;28;21621;-76
2023/08/14 01:14:01;;;;;;;8.20;6.05;;;;;;;15.39;100.00;101596.50;4986910;28;20054;-76
2023/08/14 01:16:35;;;;;;;6.57;5.95;;;;;;;15.39;100.00;101600.94;4972388;28;20719;-76
2023/08/14 01:19:05;;;;;;;7.50;6.07;;;;;;;15.36;100.00;101593.00;4968844;28;20480;-76
2023/08/14 01:21:42;;;;;;;7.60;6.75;;;;;;;15.34;100.00;101589.47;4972413;28;20053;-76
2023/08/14 01:24:32;;;;;;;6.22;5.63;;;;;;;15.33;100.00;101595.66;4987678;28;20049;-75
2023/08/14 01:27:00;;;;;;;7.10;6.33;;;;;;;15.31;100.00;101592.13;4924034;28;20076;-77
2023/08/14 01:29:30;;;;;;;5.90;5.35;;;;;;;15.28;100.00;101577.09;4958049;28;20046;-75
2023/08/14 01:31:58;;;;;;;6.25;5.75;;;;;;;15.26;100.00;101583.31;4969223;28;20085;-75
2023/08/14 01:34:25;;;;;;;5.65;5.15;;;;;;;15.25;100.00;101576.22;4971976;28;20054;-77
2023/08/14 01:37:04;;;;;;;6.63;6.13;;;;;;;15.24;100.00;101566.50;4986915;28;20073;-77
2023/08/14 01:40:03;;;;;;;8.90;5.90;;;;;;;15.23;100.00;101570.91;4987918;28;20054;-76
2023/08/14 01:42:37;;;;;;;6.80;5.75;;;;;;;15.19;100.00;101570.03;4949156;28;20754;-76
2023/08/14 01:45:11;;;;;;;6.95;5.30;;;;;;;15.17;100.00;101569.16;4975985;28;20582;-76
2023/08/14 01:47:42;;;;;;;5.72;5.22;;;;;;;15.16;100.00;101566.50;4972456;28;20050;-76
2023/08/14 01:50:10;;;;;;;;;;;;;;;15.15;100.00;101559.47;4970507;28;20774;-76
2023/08/14 01:52:37;;;;;;;7.95;5.85;;;;;;;15.13;100.00;101559.47;4972342;28;19928;-76
2023/08/14 01:55:05;;;;;;;6.78;5.75;;;;;;;15.12;100.00;101565.66;4969241;28;20076;-76
2023/08/14 01:57:33;;;;;;;6.50;5.88;;;;;;;15.11;100.00;101569.19;4972247;28;20058;-76
2023/08/14 02:00:01;;;;;;;8.90;6.88;;;;;;;15.11;100.00;101563.03;4940674;28;20046;-77
2023/08/14 02:02:39;;;;;;;6.18;5.57;;;;;;;15.10;100.00;101566.53;4990945;28;20058;-76
2023/08/14 02:05:06;;;;;;;5.93;5.40;;;;;;;15.08;100.00;101560.38;4969142;28;20054;-76
2023/08/14 02:07:34;;;;;;;8.90;5.90;;;;;;;15.07;100.00;101563.94;4987818;28;20054;-76
2023/08/14 02:10:02;;;;;;;7.18;5.72;;;;;;;15.04;100.00;101567.44;4986267;28;20049;-76
2023/08/14 02:12:30;;;;;;;9.75;6.22;;;;;;;15.01;100.00;101565.72;4971910;28;20054;-76
2023/08/14 02:14:58;;;;;;;7.97;6.97;;;;;;;15.02;100.00;101563.94;4928248;28;20046;-75
2023/08/14 02:17:27;;;;;;;7.10;6.40;;;;;;;14.98;100.00;101552.44;4970334;28;20050;-75
2023/08/14 02:19:54;;;;;;;6.72;6.05;;;;;;;14.99;100.00;101553.34;4968041;28;20042;-75
2023/08/14 02:22:22;;;;;;;8.77;6.50;;;;;;;14.96;100.00;101546.25;4969665;28;20081;-75
2023/08/14 02:24:49;;;;;;;10.55;6.60;;;;;;;14.97;100.00;101549.78;4969200;28;20057;-76
2023/08/14 02:27:16;;;;;;;6.90;6.10;;;;;;;14.97;100.00;101549.78;4968919;28;20065;-76
2023/08/14 02:29:45;;;;;;;9.70;6.78;;;;;;;14.95;100.00;101547.16;4928020;28;20077;-76
2023/08/14 02:32:13;;;;;;;8.15;6.35;;;;;;;14.96;100.00;101543.59;4967840;28;20042;-76
2023/08/14 02:34:48;;;;;;;7.07;6.45;;;;;;;14.94;100.00;101545.38;4969712;28;20043;-76
2023/08/14 02:37:17;;;;;;;7.72;6.90;;;;;;;14.93;100.00;101543.63;4969339;28;20053;-76
2023/08/14 02:39:45;;;;;;;9.77;7.03;;;;;;;14.92;100.00;101544.50;4969892;28;20061;-76
2023/08/14 02:42:16;;;;;;;7.40;6.70;;;;;;;14.92;100.00;101543.63;4968943;28;20053;-76
2023/08/14 02:44:45;;;;;;;9.35;7.25;;;;;;;14.92;100.00;101536.53;4933513;28;20050;-76
2023/08/14 02:47:13;;;;;;;8.00;6.35;;;;;;;14.90;100.00;101538.31;4975068;28;20463;-76
2023/08/14 02:49:40;;;;;;;6.75;6.10;;;;;;;14.88;100.00;101539.22;4972160;28;20039;-76
2023/08/14 02:52:07;;;;;;;9.55;6.57;;;;;;;14.86;100.00;101536.56;4966731;28;20787;-75
2023/08/14 02:54:35;;;;;;;11.27;7.00;;;;;;;14.85;100.00;101540.09;4971628;28;20054;-75
2023/08/14 02:57:02;;;;;;;9.02;6.47;;;;;;;14.85;100.00;101539.22;4967237;28;20515;-75
2023/08/14 02:59:29;;;;;;;8.65;6.25;;;;;;;14.82;100.00;101541.00;4930635;28;20038;-75
2023/08/14 03:01:59;;;;;;;7.00;6.20;;;;;;;14.81;100.00;101538.34;4984301;28;20069;-77
2023/08/14 03:04:26;;;;;;;8.05;6.72;;;;;;;14.79;100.00;101535.69;4970731;28;20050;-76
2023/08/14 03:06:54;;;;;;;8.02;6.07;;;;;;;14.77;100.00;101526.00;4968069;28;20047;-77
2023/08/14 03:09:21;;;;;;;9.70;6.60;;;;;;;14.76;100.00;101532.16;4969168;28;20511;-77
2023/08/14 03:11:48;;;;;;;10.70;6.40;;;;;;;14.74;100.00;101539.25;4968686;28;20054;-77
2023/08/14 03:14:16;;;;;;;9.25;6.28;;;;;;;14.72;100.00;101533.94;4927948;28;20696;-76
2023/08/14 03:16:43;;;;;;;7.47;6.50;;;;;;;14.72;100.00;101525.97;4968965;28;20057;-76
2023/08/14 03:19:11;;;;;;;7.10;6.10;;;;;;;14.72;100.00;101528.63;4968189;28;20054;-77
2023/08/14 03:21:39;;;;;;;8.15;6.15;;;;;;;14.70;100.00;101525.09;4970737;28;20061;-76
2023/08/14 03:24:06;;;;;;;7.93;5.80;;;;;;;14.69;100.00;101527.75;4967256;28;20073;-76
2023/08/14 03:26:34;;;;;;;8.63;6.30;;;;;;;14.69;100.00;101531.31;4970172;28;20058;-75
2023/08/14 03:29:01;;;;;;;8.10;6.20;;;;;;;14.68;100.00;101524.22;4926185;28;20596;-76
2023/08/14 03:31:31;;;;;;;8.45;6.60;;;;;;;14.68;100.00;101524.22;4982466;28;20119;-76
2023/08/14 03:34:01;;;;;;;7.28;6.20;;;;;;;14.65;100.00;101515.41;4966269;28;20066;-76
2023/08/14 03:36:28;;;;;;;8.60;5.95;;;;;;;14.63;100.00;101523.38;4969646;28;20054;-76
2023/08/14 03:38:57;;;;;;;10.82;6.20;;;;;;;14.61;100.00;101528.69;4966884;28;20050;-76
2023/08/14 03:41:25;;;;;;;6.95;6.13;;;;;;;14.60;100.00;101526.03;4969065;28;20042;-75
2023/08/14 03:43:55;;;;;;;7.25;6.55;;;;;;;14.58;100.00;101525.16;4935192;28;20061;-75
2023/08/14 03:46:23;;;;;;;14.43;7.47;;;;;;;14.57;100.00;101531.34;4966731;28;20059;-76
2023/08/14 03:48:50;;;;;;;7.53;6.20;;;;;;;14.56;100.00;101541.03;4968050;28;20055;-75
2023/08/14 03:51:18;;;;;;;6.70;6.10;;;;;;;14.57;100.00;101536.66;4968908;28;20050;-75
2023/08/14 03:53:47;;;;;;;7.25;5.95;;;;;;;14.56;100.00;101546.34;4968417;28;20428;-76
2023/08/14 03:56:15;;;;;;;8.07;7.07;;;;;;;14.56;100.00;101537.50;4999571;28;20777;-76
2023/08/14 03:58:42;;;;;;;9.32;6.47;;;;;;;14.54;100.00;101541.94;4969912;28;20038;-76
2023/08/14 04:01:10;;;;;;;8.52;6.75;;;;;;;14.52;100.00;101535.75;4932871;28;20061;-76
2023/08/14 04:03:37;;;;;;;10.60;6.57;;;;;;;14.51;100.00;101529.56;4971628;28;20053;-76
2023/08/14 04:06:05;;;;;;;7.85;6.75;;;;;;;14.52;100.00;101535.75;4955736;28;20041;-76
2023/08/14 04:08:32;;;;;;;10.57;7.35;;;;;;;14.49;100.00;101533.97;4974120;28;20042;-75
2023/08/14 04:11:00;;;;;;;12.40;7.25;;;;;;;14.50;100.00;101534.84;4970717;28;20389;-75
2023/08/14 04:13:28;;;;;;;11.48;7.40;;;;;;;14.48;100.00;101534.88;4974605;28;20061;-76
2023/08/14 04:16:03;;;;;;;6.93;6.22;;;;;;;14.49;100.00;101549.00;4921708;28;20042;-75
2023/08/14 04:18:31;;;;;;;7.28;6.57;;;;;;;14.48;100.00;101528.66;4973829;28;20423;-76
2023/08/14 04:20:58;;;;;;;8.77;7.00;;;;;;;14.49;100.00;101541.06;4970053;28;20047;-77
2023/08/14 04:23:26;;;;;;;10.93;6.82;;;;;;;14.49;100.00;101557.84;4973681;28;20050;-75
2023/08/14 04:25:53;;;;;;;7.60;6.90;;;;;;;14.49;100.00;101546.34;4970985;28;20050;-76
2023/08/14 04:28:22;;;;;;;14.00;8.98;;;;;;;14.49;100.00;101547.22;4973277;28;20061;-76
2023/08/14 04:30:49;;;;;;;15.27;9.10;;;;;;;14.50;100.00;101538.41;4970828;28;20055;-76
2023/08/14 04:33:17;;;;;;;13.15;9.18;;;;;;;14.53;100.00;101529.56;4929290;28;20050;-76
2023/08/14 04:35:46;;;;;;;8.73;6.88;;;;;;;14.54;100.00;101537.50;5003074;28;20054;-76
2023/08/14 04:38:13;;;;;;;9.30;7.85;;;;;;;14.56;100.00;101534.88;4971775;28;20053;-76
2023/08/14 04:40:46;;;;;;;12.65;7.10;;;;;;;14.59;100.00;101537.53;4970790;28;20030;-76
2023/08/14 04:43:13;;;;;;;12.48;8.15;;;;;;;14.62;100.00;101538.41;4970531;28;20080;-76
2023/08/14 04:45:40;;;;;;;8.52;7.47;;;;;;;14.64;100.00;101533.09;4973060;28;20052;-77
2023/08/14 04:48:08;;;;;;;10.18;8.30;;;;;;;14.65;100.00;101536.63;4926392;28;20055;-75
2023/08/14 04:50:35;;;;;;;9.07;7.63;;;;;;;14.67;100.00;101533.09;4972353;28;20047;-76
2023/08/14 04:53:03;;;;;;;10.88;7.95;;;;;;;14.69;100.00;101531.31;4966293;28;20051;-75
2023/08/14 04:55:35;;;;;;;8.73;7.82;;;;;;;14.72;100.00;101523.34;4969072;28;20050;-77
2023/08/14 04:58:02;;;;;;;11.13;8.82;;;;;;;14.79;100.00;101526.88;4967140;28;20068;-77
2023/08/14 05:00:29;;;;;;;10.35;8.27;;;;;;;14.89;100.00;101527.72;4969271;28;20058;-75
2023/08/14 05:02:59;;;;;;;12.07;8.23;;;;;;;15.05;100.00;101520.56;4923142;28;22810;-77
2023/08/14 05:05:27;;;;;;;8.38;7.43;;;;;;;15.19;100.00;101524.91;4969346;28;20420;-75
2023/08/14 05:07:54;;;;;;;9.90;7.97;;;;;;;15.35;100.00;101523.06;4972570;28;20054;-75
2023/08/14 05:10:22;;;;;;;8.77;7.88;;;;;;;15.51;100.00;101525.63;4967977;28;20065;-75
2023/08/14 05:12:49;;;;;;;8.35;7.07;;;;;;;15.62;100.00;101526.44;4967873;28;20058;-75
2023/08/14 05:15:16;;;;;;;9.23;7.18;;;;;;;15.74;100.00;101528.16;4968145;28;20054;-75
2023/08/14 05:17:44;;;;;;;11.57;7.68;;;;;;;15.94;100.00;101518.25;4969605;28;20054;-75
2023/08/14 05:20:12;;;;;;;12.50;7.22;;;;;;;16.05;100.00;101519.91;4933218;28;20058;-75
2023/08/14 05:22:39;;;;;;;8.10;7.30;;;;;;;16.15;100.00;101522.50;4973936;28;20526;-76
2023/08/14 05:25:08;;;;;;;9.35;7.18;;;;;;;16.24;100.00;101531.28;4966057;28;20058;-76
2023/08/14 05:27:38;;;;;;;9.15;7.65;;;;;;;16.27;100.00;101528.59;4968808;28;20055;-76
2023/08/14 05:30:06;;;;;;;8.20;7.40;;;;;;;16.25;100.00;101525.94;4967888;28;20070;-76
2023/08/14 05:32:34;;;;;;;8.30;7.50;;;;;;;16.25;100.00;101525.06;4969533;28;20051;-76
2023/08/14 05:35:01;;;;;;;10.80;8.00;;;;;;;16.24;100.00;101528.63;4908639;28;20054;-75
2023/08/14 05:37:28;;;;;;;11.52;8.02;;;;;;;16.21;100.00;101528.66;4984357;28;20528;-75
2023/08/14 05:39:56;;;;;;;12.50;8.27;;;;;;;16.16;100.00;101537.56;4965926;28;20043;-75
2023/08/14 05:42:23;;;;;;;10.07;7.45;;;;;;;16.13;100.00;101526.94;4969290;28;20047;-75
2023/08/14 05:44:50;;;;;;;9.05;7.57;;;;;;;16.11;100.00;101533.19;4968105;28;20050;-75
2023/08/14 05:47:18;;;;;;;7.85;7.07;;;;;;;16.09;100.00;101532.31;4968542;28;20043;-75
2023/08/14 05:49:45;;;;;;;11.32;7.68;;;;;;;16.09;100.00;101533.19;4953387;28;20047;-75
2023/08/14 05:52:13;;;;;;;10.43;7.57;;;;;;;16.10;100.00;101531.41;4960932;28;20046;-75
2023/08/14 05:54:40;;;;;;;9.35;8.10;;;;;;;16.12;100.00;101530.53;4989311;28;20038;-75
2023/08/14 05:57:07;;;;;;;8.00;7.22;;;;;;;16.16;100.00;101528.69;4970124;28;20042;-75
2023/08/14 05:59:34;;;;;;;10.77;7.45;;;;;;;16.19;100.00;101523.34;4971695;28;20077;-75
2023/08/14 06:02:02;;;;;;;10.25;8.35;;;;;;;16.23;100.00;101532.19;4970071;28;20053;-75
2023/08/14 06:04:30;;;;;;;7.97;7.18;;;;;;;16.29;100.00;101530.34;4971997;28;20054;-76
2023/08/14 06:06:57;;;;;;;11.45;8.90;;;;;;;16.35;100.00;101535.63;4932964;28;20058;-75
2023/08/14 06:09:25;;;;;;;11.05;8.20;;;;;;;16.40;100.00;101534.69;4972377;28;20066;-75
2023/08/14 06:19:56;;;;;;;10.90;9.38;;;;;;;16.49;100.00;101529.28;4963234;28;20045;-75
2023/08/14 06:22:23;;;;;;;10.52;8.60;;;;;;;16.52;100.00;101530.13;4893061;28;20051;-75
2023/08/14 06:24:51;;;;;;;12.38;9.02;;;;;;;16.58;100.00;101529.19;4943527;28;20062;-75
2023/08/14 06:27:18;;;;;;;12.85;9.80;;;;;;;16.63;100.00;101526.44;4951703;28;20074;-75
2023/08/14 06:29:46;;;;;;;15.43;9.02;;;;;;;16.67;100.00;101537.06;4963843;28;20055;-76
2023/08/14 06:32:13;;;;;;;11.40;9.20;;;;;;;16.71;100.00;101541.44;4948445;28;20123;-76
2023/08/14 06:34:42;;;;;;;10.38;9.13;;;;;;;16.75;100.00;101537.84;4950756;28;20063;-76
2023/08/14 06:37:09;;;;;;;14.15;9.43;;;;;;;16.82;100.00;101532.44;4912311;28;20046;-76
2023/08/14 06:39:37;;;;;;;10.85;8.70;;;;;;;16.87;100.00;101533.31;4960865;28;20070;-76
2023/08/14 06:42:05;;;;;;;13.85;8.48;;;;;;;16.92;100.00;101531.50;4928495;28;20043;-76
2023/08/14 06:44:32;;;;;;;10.27;8.65;;;;;;;16.99;100.00;101530.47;4949888;28;20551;-76
2023/08/14 06:47:00;;;;;;;12.80;8.10;;;;;;;17.07;100.00;101527.72;4930480;28;20046;-76
2023/08/14 06:49:28;;;;;;;10.32;9.32;;;;;;;17.13;100.00;101517.88;4951506;28;20050;-76
2023/08/14 06:51:55;;;;;;;11.35;8.77;;;;;;;17.19;100.00;101522.25;4948241;28;20130;-76
2023/08/14 06:54:22;;;;;;;12.52;8.75;;;;;;;17.23;100.00;101534.63;4947312;28;20061;-77
2023/08/14 06:56:50;;;;;;;11.68;9.73;;;;;;;17.26;100.00;101531.94;4948899;28;20050;-75
2023/08/14 06:59:17;;;;;;;10.45;8.48;;;;;;;17.32;100.00;101539.81;4965439;28;20054;-75
2023/08/14 07:01:44;;;;;;;18.30;8.85;;;;;;;17.37;100.00;101536.22;4935569;28;20129;-75
2023/08/14 07:04:12;;;;;;;11.77;8.77;;;;;;;17.40;100.00;101534.38;4947812;28;20055;-75
2023/08/14 07:06:39;;;;;;;9.10;8.02;;;;;;;17.46;100.00;101536.09;4968133;28;20039;-75
2023/08/14 07:09:07;;;;;;;11.30;7.97;;;;;;;17.50;100.00;101536.03;4920788;28;20076;-75
2023/08/14 07:11:38;;;;;;;9.52;8.52;;;;;;;17.56;100.00;101547.47;4955374;28;20065;-75
2023/08/14 07:14:06;;;;;;;9.77;7.85;;;;;;;17.61;100.00;101542.97;4948331;28;20495;-75
2023/08/14 07:16:34;;;;;;;10.05;8.40;;;;;;;17.68;100.00;101541.97;4949826;28;20051;-75
2023/08/14 07:19:01;;;;;;;11.05;8.15;;;;;;;17.71;100.00;101540.16;4947455;28;20416;-75
2023/08/14 07:21:28;;;;;;;9.98;7.47;;;;;;;17.75;100.00;101549.00;4933827;28;20416;-75
2023/08/14 07:23:56;;;;;;;11.65;8.57;;;;;;;17.77;100.00;101547.19;4936226;28;20112;-75
2023/08/14 07:26:24;;;;;;;12.20;8.52;;;;;;;17.83;100.00;101551.53;4955155;28;20058;-76
2023/08/14 07:28:51;;;;;;;9.57;7.88;;;;;;;17.88;100.00;101550.59;4948692;28;20043;-75
2023/08/14 07:31:19;;;;;;;10.65;8.30;;;;;;;17.93;100.00;101554.03;4950127;28;20055;-77
2023/08/14 07:33:46;;;;;;;11.80;8.32;;;;;;;18.01;100.00;101556.56;4934111;28;20452;-75
2023/08/14 07:36:13;;;;;;;12.25;8.18;;;;;;;18.08;100.00;101558.25;4949955;28;20557;-75
2023/08/14 07:38:42;;;;;;;9.20;7.50;;;;;;;18.18;100.00;101566.97;4943775;28;20062;-75
2023/08/14 07:41:09;;;;;;;12.07;7.88;;;;;;;18.33;100.00;101570.28;4920519;28;20058;-75
2023/08/14 07:43:37;;;;;;;12.02;7.60;;;;;;;18.46;100.00;101569.16;4949968;28;20050;-75
2023/08/14 07:46:04;;;;;;;8.45;7.35;;;;;;;18.54;100.00;101572.56;4946305;28;20054;-76
2023/08/14 07:48:31;;;;;;;7.05;6.35;;;;;;;18.64;100.00;101566.16;4949459;28;20047;-75
2023/08/14 07:50:59;;;;;;;8.27;7.38;;;;;;;18.77;100.00;101569.47;4931059;28;20047;-75
2023/08/14 07:53:26;;;;;;;8.80;7.25;;;;;;;18.91;100.00;101561.22;4923716;28;1146077;-76
2023/08/14 07:55:54;;;;;;;10.80;7.25;;;;;;;19.04;100.00;101557.38;4936468;28;20049;-75
2023/08/14 07:58:22;;;;;;;7.30;6.30;;;;;;;19.13;100.00;101555.41;4974920;28;20074;-75
2023/08/14 08:00:49;;;;;;;9.48;6.32;;;;;;;19.20;100.00;101559.72;4969000;28;20046;-76
2023/08/14 08:03:17;;;;;;;7.10;5.93;;;;;;;19.25;100.00;101560.53;4985100;28;20038;-76
2023/08/14 08:05:44;;;;;;;11.55;7.10;;;;;;;19.33;100.00;101557.69;4983914;28;20057;-75
2023/08/14 08:08:11;;;;;;;11.05;6.70;;;;;;;19.42;100.00;101563.69;4965165;28;20038;-76
2023/08/14 08:10:39;;;;;;;9.18;6.40;;;;;;;19.48;100.00;101552.84;4931720;28;20042;-76
2023/08/14 08:13:06;;;;;;;6.38;5.65;;;;;;;19.50;100.00;101555.50;4975475;28;20047;-76
2023/08/14 08:15:34;;;;;;;6.78;5.45;;;;;;;19.51;100.00;101556.38;4969725;28;20403;-76
2023/08/14 08:18:01;;;;;;;8.13;5.97;;;;;;;19.51;100.00;101564.38;4966865;28;20085;-75
2023/08/14 08:20:28;;;;;;;5.65;5.07;;;;;;;19.52;100.00;101552.81;4969779;28;20062;-76
2023/08/14 08:22:56;;;;;;;6.28;5.13;;;;;;;19.56;100.00;101549.13;4967382;28;20046;-76
2023/08/14 08:25:23;;;;;;;7.25;4.50;;;;;;;19.61;100.00;101558.81;4971241;28;20416;-76
2023/08/14 08:27:50;;;;;;;10.50;5.20;;;;;;;19.68;100.00;101560.44;4926353;28;20050;-76
2023/08/14 08:30:18;;;;;;;5.75;4.18;;;;;;;19.76;100.00;101551.38;4987074;28;20046;-76
2023/08/14 08:32:45;;;;;;;6.05;4.47;;;;;;;19.85;100.00;101554.72;4969012;28;20046;-76
2023/08/14 08:35:13;;;;;;;6.30;4.30;;;;;;;19.96;100.00;101548.22;4968981;28;20536;-75
2023/08/14 08:37:41;;;;;;;6.00;2.95;;;;;;;20.06;100.00;101545.28;4986899;28;20059;-75
2023/08/14 08:40:09;;;;;;;3.67;2.47;;;;;;;20.14;100.00;101544.22;4967377;28;20424;-75
2023/08/14 08:42:38;;;;;;;6.18;2.88;;;;;;;20.19;100.00;101550.34;4929195;28;20053;-76
2023/08/14 08:45:07;;;;;;;2.58;2.35;;;;;;;20.26;100.00;101546.56;4984651;28;20466;-76
2023/08/14 08:47:40;;;;;;;5.85;2.78;;;;;;;20.34;100.00;101536.53;4987612;28;20491;-76
2023/08/14 08:50:09;;;;;;;3.15;2.20;;;;;;;20.38;100.00;101540.03;4969115;28;20043;-76
2023/08/14 08:52:38;;;;;;;4.68;2.10;;;;;;;20.46;100.00;101538.00;4973741;28;20058;-77
2023/08/14 08:55:07;;;;;;;4.38;2.47;;;;;;;20.60;100.00;101534.97;4969433;28;20073;-76
2023/08/14 08:57:38;;;;;;;7.03;2.35;;;;;;;20.76;100.00;101532.75;4949308;28;20400;-76
2023/08/14 09:00:06;;;;;;;4.72;2.30;;;;;;;20.94;100.00;101534.00;4970669;28;20080;-76
2023/08/14 09:02:33;;;;;;;7.75;2.33;;;;;;;21.10;100.00;101535.34;4991815;28;20038;-76
2023/08/14 09:05:00;;;;;;;2.88;1.83;;;;;;;21.21;100.00;101535.03;4953995;28;20038;-76
2023/08/14 09:07:28;;;;;;;3.80;1.83;;;;;;;21.35;100.00;101537.25;4972329;28;20054;-76
2023/08/14 09:09:56;;;;;;;3.55;1.80;;;;;;;21.50;100.00;101546.69;4970183;28;20054;-76
2023/08/14 09:12:24;;;;;;;4.85;2.13;;;;;;;21.65;100.00;101545.31;4972145;28;20059;-76
2023/08/14 09:15:10;;;;;;;5.07;2.10;;;;;;;21.75;100.00;101544.94;4944550;28;20045;-76
2023/08/14 09:17:37;;;;;;;4.65;1.70;;;;;;;21.84;100.00;101527.69;4974308;28;20515;-75
2023/08/14 09:20:06;;;;;;;2.15;1.50;;;;;;;21.83;100.00;101530.41;4988724;28;20046;-76
2023/08/14 09:22:46;;;;;;;3.20;1.50;;;;;;;21.82;100.00;101517.94;4989855;28;20421;-76
2023/08/14 09:25:15;;;;;;;2.85;1.50;;;;;;;21.73;100.00;101522.66;4972429;28;20054;-76
2023/08/14 09:27:43;;;;;;;3.80;1.40;;;;;;;21.63;100.00;101523.91;4974335;28;20046;-75
2023/08/14 09:30:12;;;;;;;1.77;1.42;;;;;;;21.57;100.00;101519.63;4937191;28;20669;-76
2023/08/14 09:32:39;;;;;;;5.10;1.67;;;;;;;21.55;100.00;101517.88;4977771;28;20085;-76
2023/08/14 09:35:07;;;;;;;4.20;1.50;;;;;;;21.54;100.00;101526.88;4969797;28;20134;-76
2023/08/14 09:37:35;;;;;;;5.78;1.83;;;;;;;21.67;100.00;101533.59;4973615;28;20077;-76
2023/08/14 09:40:17;;;;;;;6.25;2.00;;;;;;;21.79;100.00;101524.25;4985943;28;20112;-76
2023/08/14 09:42:45;;;;;;;3.63;1.80;;;;;;;;;;4972226;28;20431;-76
2023/08/14 09:45:14;;;;;;;3.88;1.88;;;;;;;22.00;100.00;101530.72;4937345;28;20050;-75
2023/08/14 09:47:42;;;;;;;10.88;1.65;;;;;;;22.10;100.00;101539.38;4990328;28;20053;-76
2023/08/14 09:50:14;;;;;;;5.00;1.80;;;;;;;22.15;100.00;101532.88;4989072;28;20034;-75
2023/08/14 09:52:45;;;;;;;5.28;2.13;;;;;;;22.29;100.00;101526.22;4971916;28;20051;-75
2023/08/14 09:55:14;;;;;;;2.85;1.00;;;;;;;22.36;100.00;101522.34;4971794;28;20082;-75
2023/08/14 09:57:41;;;;;;;3.83;1.27;;;;;;;22.44;100.00;101530.13;4958222;28;20715;-76
2023/08/14 10:00:12;;;;;;;2.85;1.60;;;;;;;22.51;100.00;101529.00;4972474;28;20551;-76
2023/08/14 10:02:43;;;;;;;5.15;3.13;;;;;;;22.56;100.00;101530.59;4948094;28;20049;-76
2023/08/14 10:05:14;;;;;;;3.40;1.33;;;;;;;22.66;100.00;101532.94;4987939;28;20050;-75
2023/08/14 10:07:42;;;;;;;2.50;1.08;;;;;;;22.76;100.00;101529.00;4969457;28;20085;-77
2023/08/14 10:10:11;;;;;;;2.10;1.25;;;;;;;22.83;100.00;101521.56;4987915;28;20581;-76
2023/08/14 10:12:53;;;;;;;3.72;1.33;;;;;;;22.82;100.00;101518.00;4990672;28;20042;-76
2023/08/14 10:15:31;;;;;;;1.38;0.88;;;;;;;22.87;100.00;101509.75;4988989;28;20058;-76
2023/08/14 10:18:04;;;;;;;4.47;1.05;;;;;;;22.92;100.00;101508.66;4954202;28;20785;-76
2023/08/14 10:20:34;;;;;;;1.95;1.13;;;;;;;22.92;100.00;101514.03;4977018;28;20051;-76
2023/08/14 10:23:02;;;;;;;3.13;1.67;;;;;;;22.98;100.00;101507.56;4986071;28;20397;-76
2023/08/14 10:25:30;;;;;;;1.48;1.30;;;;;;;23.03;100.00;101510.09;4971904;28;20065;-76
2023/08/14 10:27:58;;;;;;;4.50;1.40;;;;;;;23.03;100.00;101507.38;5014960;28;20046;-76
2023/08/14 10:30:27;;;;;;;6.88;1.38;;;;;;;23.01;100.00;101506.56;4990340;28;20045;-75
2023/08/14 10:32:55;;;;;;;2.67;1.17;;;;;;;22.98;100.00;101496.81;4959218;28;20049;-75
2023/08/14 10:35:25;;;;;;;3.47;1.30;;;;;;;22.97;100.00;101503.13;4977737;28;20057;-75
2023/08/14 10:37:53;;;;;;;2.95;1.23;;;;;;;22.96;100.00;101501.34;4970752;28;20069;-76
2023/08/14 10:40:51;;;;;;;3.50;1.25;;;;;;;22.98;100.00;101503.03;4973309;28;20427;-76
2023/08/14 10:43:28;;;;;;;3.30;1.00;;;;;;;23.07;100.00;101501.84;4989015;28;20058;-76
2023/08/14 10:45:56;;;;;;;2.60;1.13;;;;;;;23.18;100.00;101495.19;4969871;28;20038;-76
2023/08/14 10:48:23;;;;;;;4.00;1.02;;;;;;;23.32;100.00;101499.06;4932344;28;20054;-76
2023/08/14 10:50:59;;;;;;;2.65;1.00;;;;;;;23.43;100.00;101498.66;4970855;28;20058;-76
2023/08/14 10:53:29;;;;;;;3.10;1.20;;;;;;;23.56;100.00;101493.66;4967936;28;20042;-76
2023/08/14 10:55:58;;;;;;;1.35;0.93;;;;;;;23.61;100.00;101490.75;4981483;28;20046;-76
2023/08/14 10:58:29;;;;;;;2.03;1.08;;;;;;;23.56;100.00;101485.59;4970719;28;20416;-76
2023/08/14 11:00:57;;;;;;;2.65;1.20;;;;;;;23.60;100.00;101480.97;4967009;28;20047;-76
2023/08/14 11:03:25;;;;;;;2.03;1.20;;;;;;;23.62;100.00;101479.94;4969521;28;20098;-76
2023/08/14 11:05:53;;;;;;;3.38;1.58;;;;;;;23.62;100.00;101474.56;4923856;28;20062;-76
2023/08/14 11:08:21;;;;;;;4.13;1.05;;;;;;;23.67;100.00;101483.31;4968383;28;20050;-76
2023/08/14 11:10:49;;;;;;;3.85;1.60;;;;;;;23.63;100.00;101476.31;4947668;28;20416;-77
2023/08/14 11:13:17;;;;;;;1.88;1.20;;;;;;;23.68;100.00;101477.00;4964294;28;20035;-76
2023/08/14 11:15:44;;;;;;;3.15;0.98;;;;;;;23.63;100.00;101476.31;4976558;28;20054;-75
2023/08/14 11:18:11;;;;;;;2.90;1.30;;;;;;;23.64;100.00;101479.88;4993471;28;20047;-76
2023/08/14 11:20:42;;;;;;;4.00;1.20;;;;;;;23.72;100.00;101480.44;4925147;28;20066;-76
2023/08/14 11:23:10;;;;;;;3.03;1.20;;;;;;;23.82;100.00;101486.34;4987718;28;20039;-76
2023/08/14 11:25:38;;;;;;;3.72;1.25;;;;;;;23.91;100.00;101488.63;4985248;28;20047;-76
2023/08/14 11:28:05;;;;;;;3.80;1.08;;;;;;;24.00;100.00;101485.56;4982813;28;20042;-76
2023/08/14 11:30:34;;;;;;;2.17;1.17;;;;;;;24.01;100.00;101487.31;4964811;28;20085;-75
2023/08/14 11:33:07;;;;;;;2.00;1.02;;;;;;;24.11;100.00;101482.41;4951282;28;20051;-75